Terminal Aerodrome Forecast
Issued by NWS Jacksonville, FL

Home | Current Version | Previous Version | Text Only | Print | Product List | Glossary On
Versions: 1 2 3 4 5 6 7 8 9 10 11 12 13 14 15 16 17 18 19 20 21 22 23 24 25 26
545
FTUS42 KJAX 201720
TAFJAX
TAF
KJAX 201720Z 2018/2118 08008KT P6SM BKN250
     FM210200 VRB03KT P6SM SCT250
     FM210800 00000KT 3SM BR BKN250
     FM211400 12008KT P6SM BKN250=

USA.gov is the U.S. government's official web portal to all federal, state and local government web resources and services.